createdAt,value
2022-11-27T10:32:56.360Z,17.5
2022-11-27T10:42:57.731Z,15.2
2022-11-27T10:58:32.335Z,9.6
2022-11-27T11:14:07.451Z,15.6
2022-11-27T11:29:42.547Z,23.9
2022-11-27T11:45:17.664Z,38.8
2022-11-27T12:01:27.369Z,45.4
2022-11-27T12:17:03.046Z,44.9
2022-11-27T12:32:38.539Z,40.1
2022-11-27T12:48:18.992Z,32
2022-11-27T13:03:54.111Z,29.1
2022-11-27T13:19:29.220Z,31.5
2022-11-27T13:35:04.497Z,39.3
2022-11-27T13:50:39.594Z,52.7
2022-11-27T14:06:14.826Z,32.7
2022-11-27T14:21:49.696Z,34.4
2022-11-27T14:37:24.590Z,22.5
2022-11-27T14:52:59.717Z,27.7
2022-11-27T15:08:34.842Z,26.7
2022-11-27T15:24:09.990Z,21.4
2022-11-27T15:39:45.070Z,28.4
2022-11-27T15:55:20.068Z,29.3
2022-11-27T16:10:55.157Z,14.9
2022-11-27T16:26:30.295Z,16.7
2022-11-27T16:42:05.486Z,26
2022-11-27T16:57:40.667Z,25.5
2022-11-27T17:13:15.747Z,22.3
2022-11-27T17:28:50.836Z,18
2022-11-27T17:44:25.900Z,15.8
2022-11-27T18:00:00.992Z,11.4
2022-11-27T18:15:36.114Z,19.7
2022-11-27T18:31:11.203Z,17.4
2022-11-27T18:46:46.508Z,15.9
2022-11-27T19:02:21.772Z,23.9
2022-11-27T19:17:58.921Z,20.1
2022-11-27T19:33:34.036Z,25.5
2022-11-27T19:49:09.126Z,44.2
2022-11-27T20:04:44.669Z,18.6
2022-11-27T20:20:19.821Z,15.3
2022-11-27T20:35:54.907Z,7.4
2022-11-27T20:51:29.997Z,14
2022-11-27T21:07:09.896Z,9.2
2022-11-27T21:22:45.174Z,17.3
2022-11-27T21:38:20.289Z,11.9
2022-11-27T21:54:00.319Z,8.1
2022-11-27T22:09:41.471Z,9.7
2022-11-27T22:25:22.474Z,9.7
2022-11-27T22:41:03.382Z,8.2
2022-11-27T22:56:38.565Z,9.9
2022-11-27T23:12:13.672Z,10.8
2022-11-27T23:27:48.781Z,5.6
2022-11-27T23:43:23.947Z,4.6
2022-11-27T23:58:58.749Z,5.3
